Time;durP1;ratioP1;P1;durP2;ratioP2;P2;SDS_P1;SDS_P2;PMS_P1;PMS_P2;Temp;Humidity;BMP_temperature;BMP_pressure;BME280_temperature;BME280_humidity;BME280_pressure;Samples;Min_cycle;Max_cycle;Signal;HPM_P1;HPM_P2
2023/01/31 00:01:38;;;;;;;16.17;5.35;;;5.50;78.30;;;;;;5057039;28;20753;-75
2023/01/31 00:04:10;;;;;;;15.55;5.47;;;5.50;78.30;;;;;;5054453;28;20243;-75
2023/01/31 00:06:40;;;;;;;9.80;4.90;;;5.50;78.30;;;;;;5059466;28;20191;-76
2023/01/31 00:09:11;;;;;;;10.45;5.03;;;5.50;78.50;;;;;;5053187;28;20215;-75
2023/01/31 00:11:39;;;;;;;15.27;5.53;;;5.50;78.30;;;;;;5055900;28;20234;-76
2023/01/31 00:14:09;;;;;;;19.27;5.38;;;5.40;78.50;;;;;;5053781;28;20202;-75
2023/01/31 00:16:37;;;;;;;16.63;6.07;;;5.40;78.50;;;;;;5072299;28;20881;-75
2023/01/31 00:19:06;;;;;;;20.38;5.50;;;5.40;78.50;;;;;;5050699;28;20220;-77
2023/01/31 00:21:34;;;;;;;15.63;5.53;;;5.40;78.60;;;;;;5055860;28;20224;-77
2023/01/31 00:24:04;;;;;;;11.85;5.10;;;5.40;78.40;;;;;;5055186;28;20828;-76
2023/01/31 00:26:34;;;;;;;16.00;5.18;;;5.40;78.50;;;;;;5054302;28;20231;-76
2023/01/31 00:29:04;;;;;;;12.07;5.00;;;5.30;78.60;;;;;;5053553;28;20562;-76
2023/01/31 00:31:34;;;;;;;18.15;6.15;;;5.40;78.50;;;;;;5059408;28;20232;-76
2023/01/31 00:34:03;;;;;;;15.90;5.50;;;5.30;78.50;;;;;;5052716;28;20216;-78
2023/01/31 00:36:33;;;;;;;20.10;6.47;;;5.40;78.50;;;;;;5054959;28;20652;-77
2023/01/31 00:39:03;;;;;;;13.40;5.13;;;5.40;78.50;;;;;;5052928;28;20294;-75
2023/01/31 00:41:34;;;;;;;14.90;5.50;;;5.30;78.50;;;;;;5055483;28;20243;-77
2023/01/31 00:44:05;;;;;;;17.80;6.10;;;5.30;78.60;;;;;;5057559;28;20238;-76
2023/01/31 00:46:33;;;;;;;16.90;6.63;;;5.30;78.60;;;;;;5058012;28;20196;-77
2023/01/31 00:49:03;;;;;;;16.52;5.25;;;5.30;78.50;;;;;;5052680;28;20211;-76
2023/01/31 00:51:31;;;;;;;17.92;6.70;;;5.30;78.50;;;;;;5052697;28;20224;-77
2023/01/31 00:53:59;;;;;;;12.40;5.10;;;5.30;78.60;;;;;;5051130;28;20261;-77
2023/01/31 00:56:28;;;;;;;11.20;5.15;;;5.30;78.70;;;;;;5055250;28;20208;-76
2023/01/31 00:58:57;;;;;;;13.75;5.53;;;5.20;78.70;;;;;;5048535;28;20335;-76
2023/01/31 01:01:27;;;;;;;13.90;6.03;;;5.20;78.80;;;;;;5053846;28;20896;-75
2023/01/31 01:03:56;;;;;;;12.88;6.07;;;5.20;78.80;;;;;;5048672;28;20211;-76
2023/01/31 01:06:25;;;;;;;15.50;5.85;;;5.20;78.80;;;;;;5054231;28;20224;-77
2023/01/31 01:08:53;;;;;;;12.75;5.80;;;5.20;78.80;;;;;;5053842;28;20866;-75
2023/01/31 01:11:23;;;;;;;19.08;4.95;;;5.30;78.80;;;;;;5052517;28;20242;-76
2023/01/31 01:13:52;;;;;;;15.90;6.38;;;5.30;78.80;;;;;;5052077;28;20192;-75
2023/01/31 01:16:24;;;;;;;16.67;6.03;;;5.30;78.80;;;;;;5050738;28;20201;-75
2023/01/31 01:18:53;;;;;;;16.58;6.45;;;5.30;78.70;;;;;;5059292;28;20277;-76
2023/01/31 01:21:23;;;;;;;18.77;5.80;;;5.30;78.80;;;;;;5052129;28;20679;-75
2023/01/31 01:23:51;;;;;;;18.40;4.93;;;5.30;78.80;;;;;;5051363;28;20211;-76
2023/01/31 01:26:21;;;;;;;17.17;5.18;;;5.30;78.80;;;;;;5053063;28;20590;-76
2023/01/31 01:28:51;;;;;;;21.92;5.60;;;5.30;78.80;;;;;;5054579;28;20232;-77
2023/01/31 01:31:28;;;;;;;14.85;6.70;;;5.30;78.80;;;;;;5057528;28;20247;-76
2023/01/31 01:34:02;;;;;;;15.00;5.35;;;5.30;78.80;;;;;;5070468;28;20214;-77
2023/01/31 01:36:32;;;;;;;17.20;6.32;;;5.30;78.80;;;;;;5049374;28;20201;-75
2023/01/31 01:39:01;;;;;;;16.60;4.93;;;5.30;78.80;;;;;;5054478;28;20228;-76
2023/01/31 01:41:32;;;;;;;19.17;5.25;;;5.30;78.80;;;;;;5052681;28;20212;-76
2023/01/31 01:44:01;;;;;;;18.08;5.50;;;5.30;78.80;;;;;;5050519;28;20926;-76
2023/01/31 01:46:32;;;;;;;16.00;5.85;;;5.30;78.80;;;;;;5051610;28;20200;-77
2023/01/31 01:49:11;;;;;;;23.35;6.18;;;5.30;78.70;;;;;;5054024;28;20218;-76
2023/01/31 01:51:40;;;;;;;27.70;7.03;;;5.30;78.80;;;;;;5053789;28;20220;-76
2023/01/31 01:54:13;;;;;;;10.88;4.85;;;5.20;78.80;;;;;;5053293;28;20197;-75
2023/01/31 01:56:43;;;;;;;15.95;6.20;;;5.20;78.80;;;;;;5053115;28;20262;-76
2023/01/31 01:59:17;;;;;;;15.98;5.32;;;5.20;78.80;;;;;;5053554;28;20842;-75
2023/01/31 02:01:47;;;;;;;16.92;6.00;;;5.20;78.80;;;;;;5048055;28;21067;-75
2023/01/31 02:04:21;;;;;;;20.05;5.70;;;5.20;78.90;;;;;;5056733;28;20235;-76
2023/01/31 02:06:49;;;;;;;13.35;5.43;;;5.20;78.90;;;;;;5053566;28;20769;-75
2023/01/31 02:09:25;;;;;;;16.63;5.43;;;5.20;78.90;;;;;;5052918;28;20248;-76
2023/01/31 02:11:54;;;;;;;16.08;5.95;;;5.20;78.90;;;;;;5052616;28;20227;-76
2023/01/31 02:14:22;;;;;;;14.27;4.78;;;5.30;78.80;;;;;;5051357;28;20215;-77
2023/01/31 02:16:51;;;;;;;16.10;5.03;;;5.30;78.80;;;;;;5052554;28;20191;-76
2023/01/31 02:19:29;;;;;;;14.32;5.35;;;5.20;78.80;;;;;;5054737;28;20315;-77
2023/01/31 02:22:09;;;;;;;13.55;5.68;;;5.20;78.80;;;;;;5051840;28;20956;-76
2023/01/31 02:25:06;;;;;;;12.65;5.22;;;5.20;78.90;;;;;;5048280;28;20299;-75
2023/01/31 02:28:07;;;;;;;17.88;5.20;;;5.20;79.00;;;;;;5053536;28;20196;-77
2023/01/31 02:30:59;;;;;;;11.07;4.80;;;5.20;79.00;;;;;;5021049;28;20233;-76
2023/01/31 02:33:35;;;;;;;12.05;5.93;;;5.20;79.00;;;;;;5055298;28;20201;-77
2023/01/31 02:36:11;;;;;;;12.15;5.18;;;5.20;79.10;;;;;;5051407;28;20214;-75
2023/01/31 02:38:55;;;;;;;16.63;5.20;;;5.20;79.20;;;;;;5064639;28;20214;-76
2023/01/31 02:41:30;;;;;;;14.80;4.80;;;5.20;79.20;;;;;;5051366;28;20310;-75
2023/01/31 02:46:58;;;;;;;17.50;6.20;;;5.10;79.20;;;;;;5050376;28;20207;-77
2023/01/31 02:49:35;;;;;;;19.90;6.50;;;5.10;79.20;;;;;;5050926;28;20211;-75
2023/01/31 02:52:22;;;;;;;15.95;5.70;;;5.10;79.20;;;;;;5059529;28;20205;-76
2023/01/31 02:57:53;;;;;;;20.88;6.45;;;5.10;79.20;;;;;;5069110;28;20221;-75
2023/01/31 03:00:23;;;;;;;22.25;6.75;;;5.10;79.20;;;;;;5064412;28;20247;-76
2023/01/31 03:02:52;;;;;;;14.38;6.28;;;5.10;79.20;;;;;;5061354;28;20195;-76
2023/01/31 03:05:24;;;;;;;29.95;6.78;;;5.10;79.20;;;;;;5055342;28;20266;-75
2023/01/31 03:07:56;;;;;;;22.60;7.72;;;5.10;79.20;;;;;;5057837;28;20223;-76
2023/01/31 03:10:55;;;;;;;16.02;6.10;;;5.10;79.30;;;;;;5056255;28;20740;-76
2023/01/31 03:13:35;;;;;;;20.77;7.13;;;5.10;79.40;;;;;;5054234;28;20665;-76
2023/01/31 03:19:12;;;;;;;18.23;6.00;;;5.10;79.40;;;;;;5056517;28;20715;-75
2023/01/31 03:21:47;;;;;;;21.08;6.40;;;5.20;79.40;;;;;;5062369;28;20278;-76
2023/01/31 03:24:18;;;;;;;15.55;5.10;;;5.20;79.30;;;;;;5057140;28;20211;-77
2023/01/31 03:26:47;;;;;;;17.40;5.32;;;5.10;79.40;;;;;;5056881;28;20355;-76
2023/01/31 03:29:16;;;;;;;15.25;5.20;;;5.20;79.40;;;;;;5057792;28;20211;-75
2023/01/31 03:31:50;;;;;;;18.60;5.90;;;5.20;79.40;;;;;;5055648;28;20228;-76
2023/01/31 03:34:19;;;;;;;27.40;6.45;;;5.20;79.40;;;;;;5056738;28;20547;-77
2023/01/31 03:36:55;;;;;;;20.88;5.57;;;5.20;79.30;;;;;;5071087;28;20214;-76
2023/01/31 03:39:40;;;;;;;18.83;6.13;;;5.20;79.30;;;;;;5056262;28;20213;-76
2023/01/31 03:42:15;;;;;;;15.30;6.15;;;5.20;79.40;;;;;;5071514;28;20228;-76
2023/01/31 03:44:50;;;;;;;18.52;5.35;;;5.20;79.40;;;;;;5061334;28;20199;-75
2023/01/31 03:47:23;;;;;;;18.48;5.05;;;5.20;79.40;;;;;;5061391;28;20605;-76
2023/01/31 03:49:54;;;;;;;20.27;5.70;;;5.20;79.40;;;;;;5054764;28;20242;-77
2023/01/31 03:52:29;;;;;;;16.52;5.10;;;5.20;79.40;;;;;;5059136;28;20204;-77
2023/01/31 03:55:02;;;;;;;19.77;4.88;;;5.30;79.40;;;;;;5054251;28;20736;-76
2023/01/31 03:57:34;;;;;;;20.23;6.63;;;5.30;79.40;;;;;;5058285;28;20398;-76
2023/01/31 04:00:05;;;;;;;14.27;5.13;;;5.30;79.40;;;;;;5054326;28;20235;-76
2023/01/31 04:02:42;;;;;;;16.85;4.60;;;5.30;79.30;;;;;;5056073;28;20195;-77
2023/01/31 04:05:16;;;;;;;17.02;5.05;;;5.30;79.40;;;;;;5055939;28;20200;-77
2023/01/31 04:07:48;;;;;;;22.13;5.55;;;5.30;79.30;;;;;;5058564;28;20211;-76
2023/01/31 04:10:23;;;;;;;20.05;5.95;;;5.30;79.30;;;;;;5051327;28;20976;-76
2023/01/31 04:12:51;;;;;;;14.10;5.28;;;5.30;79.40;;;;;;5050425;28;20200;-76
2023/01/31 04:15:19;;;;;;;17.98;5.18;;;5.30;79.40;;;;;;5049998;28;20766;-77
2023/01/31 04:17:47;;;;;;;13.88;5.00;;;5.30;79.40;;;;;;5054736;28;20321;-76
2023/01/31 04:20:15;;;;;;;16.85;4.90;;;5.30;79.40;;;;;;5053626;28;20228;-77
2023/01/31 04:22:43;;;;;;;12.35;5.07;;;5.30;79.30;;;;;;5055687;28;20208;-76
2023/01/31 04:25:13;;;;;;;28.05;5.78;;;5.30;79.40;;;;;;5057567;28;20657;-76
2023/01/31 04:27:41;;;;;;;23.10;5.78;;;5.20;79.40;;;;;;5054152;28;20280;-76
2023/01/31 04:30:10;;;;;;;14.27;5.38;;;5.30;79.40;;;;;;5051695;28;20967;-76
2023/01/31 04:32:38;;;;;;;18.77;4.60;;;5.30;79.30;;;;;;5057946;28;20735;-76
2023/01/31 04:35:07;;;;;;;20.67;5.20;;;5.30;79.20;;;;;;5051112;28;20212;-76
2023/01/31 04:37:35;;;;;;;16.02;5.95;;;5.30;79.20;;;;;;5053947;28;20195;-76
2023/01/31 04:40:04;;;;;;;11.27;4.10;;;5.30;79.20;;;;;;5053325;28;20651;-76
2023/01/31 04:42:34;;;;;;;18.52;4.50;;;5.20;79.20;;;;;;5053114;28;20918;-76
2023/01/31 04:45:02;;;;;;;13.98;5.07;;;5.20;79.20;;;;;;5054797;28;20217;-77
2023/01/31 04:47:30;;;;;;;11.25;4.25;;;5.20;79.20;;;;;;5053286;28;20193;-76
2023/01/31 04:49:58;;;;;;;14.40;5.07;;;5.20;79.30;;;;;;5049051;28;20205;-75
2023/01/31 04:52:26;;;;;;;21.00;5.30;;;5.10;79.30;;;;;;5053412;28;20253;-76
2023/01/31 04:54:54;;;;;;;18.83;5.57;;;5.10;79.30;;;;;;5053808;28;20208;-77
2023/01/31 04:57:22;;;;;;;15.23;4.57;;;5.20;79.20;;;;;;5053338;28;20207;-77
2023/01/31 04:59:52;;;;;;;16.90;4.05;;;5.10;79.30;;;;;;5056990;28;20230;-76
2023/01/31 05:02:19;;;;;;;19.42;5.07;;;5.10;79.30;;;;;;5048748;28;21062;-76
2023/01/31 05:04:47;;;;;;;16.73;5.35;;;5.10;79.30;;;;;;5053577;28;20206;-76
2023/01/31 05:07:15;;;;;;;13.18;4.32;;;5.10;79.30;;;;;;5048381;28;20207;-76
2023/01/31 05:09:44;;;;;;;16.20;4.22;;;5.10;79.30;;;;;;5051467;28;20204;-75
2023/01/31 05:12:11;;;;;;;11.30;3.65;;;5.10;79.20;;;;;;5054558;28;20205;-77
2023/01/31 05:14:39;;;;;;;15.13;3.90;;;5.10;79.10;;;;;;5053525;28;20192;-76
2023/01/31 05:17:09;;;;;;;10.57;3.88;;;5.10;79.10;;;;;;5053152;28;20216;-75
2023/01/31 05:19:37;;;;;;;14.80;4.57;;;5.10;79.10;;;;;;5052607;28;20220;-76
2023/01/31 05:22:05;;;;;;;22.02;5.95;;;5.00;79.20;;;;;;5053551;28;20277;-76
2023/01/31 05:24:33;;;;;;;21.40;4.25;;;5.10;79.20;;;;;;5053337;28;20195;-76
2023/01/31 05:27:02;;;;;;;18.00;4.65;;;5.00;79.20;;;;;;5051572;28;20205;-76
2023/01/31 05:29:32;;;;;;;13.70;4.75;;;5.10;79.20;;;;;;5055329;28;20198;-75
2023/01/31 05:32:02;;;;;;;17.42;4.03;;;5.10;79.10;;;;;;5050633;28;20256;-75
2023/01/31 05:34:32;;;;;;;19.90;4.35;;;5.10;79.00;;;;;;5054193;28;20199;-77
2023/01/31 05:37:01;;;;;;;21.88;4.85;;;5.10;79.10;;;;;;5055165;28;20212;-75
2023/01/31 05:39:29;;;;;;;16.48;4.45;;;5.10;79.10;;;;;;5054942;28;20208;-76
2023/01/31 05:41:58;;;;;;;11.98;4.45;;;5.10;79.10;;;;;;5052883;28;20790;-76
2023/01/31 05:44:26;;;;;;;13.57;3.88;;;5.10;79.00;;;;;;5054279;28;20238;-76
2023/01/31 05:46:54;;;;;;;13.60;3.58;;;5.10;79.00;;;;;;5063908;28;20206;-75
2023/01/31 05:49:22;;;;;;;12.90;3.55;;;5.10;79.00;;;;;;5051494;28;20193;-76
2023/01/31 05:51:51;;;;;;;16.08;4.60;;;5.10;79.00;;;;;;5051943;28;20231;-76
2023/01/31 05:54:19;;;;;;;16.98;4.15;;;5.10;78.90;;;;;;5053593;28;20200;-76
2023/01/31 05:56:47;;;;;;;12.27;3.97;;;5.10;78.90;;;;;;5050850;28;20727;-75
2023/01/31 05:59:15;;;;;;;12.15;3.50;;;5.00;78.90;;;;;;5055527;28;20664;-75
2023/01/31 06:01:43;;;;;;;15.30;4.13;;;5.00;78.90;;;;;;5051747;28;20224;-75
2023/01/31 06:04:11;;;;;;;11.13;3.90;;;5.10;78.80;;;;;;5056434;28;20238;-75
2023/01/31 06:06:39;;;;;;;15.90;3.75;;;5.00;78.90;;;;;;5053615;28;20215;-76
2023/01/31 06:09:10;;;;;;;11.63;4.10;;;5.10;78.70;;;;;;5051872;28;20262;-77
2023/01/31 06:11:38;;;;;;;15.27;3.95;;;5.00;78.70;;;;;;5056285;28;20226;-76
2023/01/31 06:14:06;;;;;;;20.52;3.67;;;5.00;78.80;;;;;;5061093;28;20942;-76
2023/01/31 06:16:34;;;;;;;13.07;4.15;;;5.00;78.80;;;;;;5054631;28;20204;-76
2023/01/31 06:19:02;;;;;;;17.48;3.95;;;5.00;78.80;;;;;;5050957;28;20308;-75
2023/01/31 06:21:30;;;;;;;10.85;3.97;;;4.90;78.90;;;;;;5051581;28;20236;-76
2023/01/31 06:23:58;;;;;;;17.30;4.07;;;5.00;78.80;;;;;;5053105;28;20269;-76
2023/01/31 06:26:28;;;;;;;16.75;4.00;;;4.90;78.80;;;;;;5052508;28;20205;-75
2023/01/31 06:28:56;;;;;;;17.25;4.00;;;4.90;78.70;;;;;;5053340;28;20284;-77
2023/01/31 06:31:24;;;;;;;12.82;4.70;;;4.90;78.70;;;;;;5051143;28;20795;-75
2023/01/31 06:33:52;;;;;;;12.15;3.47;;;4.90;78.70;;;;;;5055673;28;20206;-76
2023/01/31 06:36:20;;;;;;;20.73;4.45;;;4.90;78.70;;;;;;5057057;28;20265;-78
2023/01/31 06:38:49;;;;;;;12.82;3.60;;;4.90;78.80;;;;;;5053407;28;20226;-76
2023/01/31 06:41:18;;;;;;;11.02;3.25;;;4.90;78.70;;;;;;5061578;28;21257;-77
2023/01/31 06:43:47;;;;;;;12.45;3.15;;;4.90;78.70;;;;;;5055825;28;20219;-76
2023/01/31 06:46:15;;;;;;;11.52;4.10;;;4.90;78.70;;;;;;5053709;28;20615;-76
2023/01/31 06:48:43;;;;;;;15.43;3.80;;;4.90;78.70;;;;;;5054327;28;20219;-77
2023/01/31 06:51:11;;;;;;;12.07;4.32;;;4.90;78.60;;;;;;5054311;28;20589;-74
2023/01/31 06:53:39;;;;;;;23.95;6.40;;;4.90;78.50;;;;;;5057825;28;20498;-77
2023/01/31 06:56:08;;;;;;;17.27;5.28;;;4.90;78.60;;;;;;5052134;28;20204;-76
2023/01/31 06:58:36;;;;;;;18.20;4.57;;;4.80;78.50;;;;;;5055797;28;20261;-76
2023/01/31 07:01:06;;;;;;;13.75;4.50;;;4.80;78.50;;;;;;5055851;28;20224;-77
2023/01/31 07:03:34;;;;;;;18.73;4.75;;;4.80;78.50;;;;;;5057188;28;20232;-77
2023/01/31 07:06:03;;;;;;;14.40;3.85;;;4.80;78.40;;;;;;5058758;28;20211;-83
2023/01/31 07:08:31;;;;;;;17.27;4.35;;;4.80;78.50;;;;;;5061206;28;20197;-83
2023/01/31 07:11:03;;;;;;;16.33;4.65;;;4.80;78.40;;;;;;5062963;28;20211;-83
2023/01/31 07:13:31;;;;;;;12.95;3.78;;;4.70;78.40;;;;;;5065752;28;20196;-82
2023/01/31 07:15:59;;;;;;;13.75;3.90;;;4.70;78.50;;;;;;5048443;28;20188;-83
2023/01/31 07:18:29;;;;;;;15.18;4.05;;;4.70;78.40;;;;;;5052732;28;20204;-84
2023/01/31 07:20:57;;;;;;;12.57;4.50;;;4.70;78.30;;;;;;5061219;28;20223;-81
2023/01/31 07:23:25;;;;;;;9.13;3.75;;;4.70;78.40;;;;;;5061307;28;20197;-82
2023/01/31 07:25:52;;;;;;;11.95;3.85;;;4.70;78.20;;;;;;5070279;28;20211;-83
2023/01/31 07:28:20;;;;;;;18.33;3.80;;;4.70;78.30;;;;;;5072760;28;20215;-81
2023/01/31 07:30:50;;;;;;;18.75;4.43;;;4.70;78.30;;;;;;5062346;28;20285;-81
2023/01/31 07:33:19;;;;;;;19.75;5.85;;;4.70;78.30;;;;;;5058907;28;20236;-82
2023/01/31 07:35:48;;;;;;;14.27;5.50;;;4.80;78.10;;;;;;5057597;28;20211;-82
2023/01/31 07:38:16;;;;;;;17.65;5.47;;;4.70;78.20;;;;;;5055335;28;20204;-82
2023/01/31 07:40:44;;;;;;;16.88;5.10;;;4.70;78.30;;;;;;5052328;28;20282;-82
2023/01/31 07:43:12;;;;;;;16.90;4.70;;;4.80;78.30;;;;;;5056868;28;20685;-81
2023/01/31 07:45:41;;;;;;;16.30;5.40;;;4.80;78.40;;;;;;5056854;28;20211;-84
2023/01/31 07:48:09;;;;;;;13.50;4.80;;;4.80;78.40;;;;;;5057868;28;20460;-81
2023/01/31 07:50:37;;;;;;;19.90;4.70;;;4.80;78.40;;;;;;5058834;28;20227;-80
2023/01/31 07:53:07;;;;;;;12.27;4.57;;;4.80;78.30;;;;;;5063081;28;20207;-83
2023/01/31 07:55:34;;;;;;;18.77;4.60;;;4.80;78.30;;;;;;5063373;28;20314;-82
2023/01/31 07:58:02;;;;;;;18.15;6.38;;;4.80;78.30;;;;;;5062685;28;20222;-83
2023/01/31 08:03:33;;;;;;;16.15;4.82;;;4.90;78.20;;;;;;5051024;28;20200;-81
2023/01/31 08:06:03;;;;;;;15.10;6.10;;;4.90;78.20;;;;;;5057329;28;20866;-82
2023/01/31 08:08:33;;;;;;;16.92;5.55;;;4.90;78.20;;;;;;5065379;28;20207;-82
2023/01/31 08:11:03;;;;;;;19.42;5.70;;;4.90;78.30;;;;;;5056734;28;20635;-82
2023/01/31 08:13:32;;;;;;;17.42;5.90;;;4.90;78.30;;;;;;5060782;28;20218;-82
2023/01/31 08:16:00;;;;;;;24.35;6.63;;;4.90;78.30;;;;;;5057256;28;20211;-80
2023/01/31 08:18:28;;;;;;;12.82;5.55;;;4.90;78.30;;;;;;5074957;28;20223;-82
2023/01/31 08:20:57;;;;;;;23.25;5.85;;;4.90;78.20;;;;;;5063605;28;20236;-82
2023/01/31 08:23:27;;;;;;;22.35;6.55;;;4.90;78.30;;;;;;5056708;28;20219;-81
2023/01/31 08:26:01;;;;;;;26.70;6.88;;;4.90;78.30;;;;;;5055590;28;20681;-82
2023/01/31 08:28:29;;;;;;;34.65;9.60;;;4.90;78.30;;;;;;5060995;28;20199;-82
2023/01/31 08:30:59;;;;;;;13.93;7.32;;;4.90;78.30;;;;;;5057535;28;20678;-81
2023/01/31 08:33:36;;;;;;;18.67;7.72;;;4.90;78.30;;;;;;5060185;28;20891;-83
2023/01/31 08:36:12;;;;;;;14.98;7.10;;;4.90;78.30;;;;;;5059238;28;20205;-81
2023/01/31 08:38:40;;;;;;;15.98;7.22;;;4.90;78.50;;;;;;5058214;28;20254;-81
2023/01/31 08:41:10;;;;;;;20.83;7.10;;;4.90;78.30;;;;;;5051745;28;20705;-82
2023/01/31 08:43:38;;;;;;;18.02;7.88;;;4.80;78.30;;;;;;5061613;28;20208;-81
2023/01/31 08:46:22;;;;;;;16.27;6.57;;;4.80;78.30;;;;;;5055071;28;20204;-81
2023/01/31 08:48:50;;;;;;;13.50;6.03;;;4.90;78.50;;;;;;5056333;28;20630;-83
2023/01/31 08:51:19;;;;;;;15.93;8.25;;;4.90;78.60;;;;;;5014106;28;20261;-80
2023/01/31 08:53:47;;;;;;;22.42;8.20;;;4.90;78.70;;;;;;5021856;28;20318;-83
2023/01/31 08:56:16;;;;;;;15.75;6.82;;;5.00;78.70;;;;;;5057002;28;20201;-81
2023/01/31 08:58:45;;;;;;;14.93;6.88;;;5.00;78.60;;;;;;5054760;28;20205;-84
2023/01/31 09:01:15;;;;;;;22.55;8.48;;;5.10;78.50;;;;;;5047492;28;21767;-80
2023/01/31 09:03:43;;;;;;;22.10;7.93;;;5.10;78.50;;;;;;5051723;28;20211;-82
2023/01/31 09:06:15;;;;;;;21.30;7.13;;;5.10;78.40;;;;;;5057679;28;20237;-81
2023/01/31 09:08:43;;;;;;;16.95;7.60;;;5.10;78.40;;;;;;5059398;28;20212;-83
2023/01/31 09:11:15;;;;;;;15.75;7.32;;;5.10;78.40;;;;;;5055613;28;20224;-83
2023/01/31 09:13:46;;;;;;;18.98;6.55;;;5.20;78.40;;;;;;5059186;28;20265;-83
2023/01/31 09:16:14;;;;;;;16.90;6.70;;;5.20;78.40;;;;;;5058829;28;20253;-82
2023/01/31 09:18:42;;;;;;;14.70;6.47;;;5.20;78.30;;;;;;5065092;28;20839;-83
2023/01/31 09:21:13;;;;;;;18.30;6.53;;;5.20;78.40;;;;;;5057774;28;20231;-83
2023/01/31 09:23:42;;;;;;;19.33;6.40;;;5.20;78.30;;;;;;5063796;28;20275;-83
2023/01/31 09:26:11;;;;;;;17.67;6.00;;;5.30;78.30;;;;;;5093901;28;20203;-82
2023/01/31 09:28:41;;;;;;;15.85;6.20;;;5.30;78.30;;;;;;5071253;28;20211;-81
2023/01/31 09:31:13;;;;;;;13.15;4.72;;;5.30;78.40;;;;;;5070220;28;20223;-81
2023/01/31 09:33:41;;;;;;;17.50;5.28;;;5.40;78.20;;;;;;5059997;28;20213;-80
2023/01/31 09:36:11;;;;;;;10.93;5.72;;;5.40;78.20;;;;;;5062411;28;20203;-81
2023/01/31 09:38:39;;;;;;;17.27;5.65;;;5.40;78.20;;;;;;5063209;28;20200;-80
2023/01/31 09:41:16;;;;;;;10.02;5.43;;;5.40;78.30;;;;;;5059305;28;20285;-82
2023/01/31 09:43:49;;;;;;;15.82;6.20;;;5.40;78.30;;;;;;5054525;28;20364;-81
2023/01/31 09:46:22;;;;;;;12.63;5.53;;;5.50;78.10;;;;;;5061681;28;20214;-80
2023/01/31 09:48:53;;;;;;;18.20;5.80;;;5.50;78.20;;;;;;5065226;28;20236;-82
2023/01/31 09:51:23;;;;;;;14.90;5.88;;;5.50;78.10;;;;;;5054856;28;20223;-81
2023/01/31 09:53:51;;;;;;;13.90;5.80;;;5.50;78.20;;;;;;5060209;28;20202;-81
2023/01/31 09:56:31;;;;;;;17.80;6.45;;;5.50;78.10;;;;;;5060660;28;20204;-81
2023/01/31 09:59:11;;;;;;;12.38;6.22;;;5.60;77.80;;;;;;5057641;28;20220;-82
2023/01/31 10:01:47;;;;;;;16.65;6.25;;;5.50;77.70;;;;;;5057767;28;20231;-81
2023/01/31 10:04:37;;;;;;;15.40;7.18;;;5.50;77.80;;;;;;5058073;28;20264;-81
2023/01/31 10:07:11;;;;;;;17.30;6.25;;;5.50;77.80;;;;;;5052206;28;20848;-81
2023/01/31 10:09:44;;;;;;;16.35;7.18;;;5.50;77.80;;;;;;5064116;28;20202;-82
2023/01/31 10:12:16;;;;;;;16.38;7.65;;;5.50;77.80;;;;;;5053440;28;20310;-80
2023/01/31 10:14:49;;;;;;;20.70;7.32;;;5.50;77.80;;;;;;5055222;28;20287;-81
2023/01/31 10:17:22;;;;;;;17.52;6.80;;;5.50;77.60;;;;;;5053916;28;20195;-81
2023/01/31 10:19:54;;;;;;;11.55;6.65;;;5.50;77.50;;;;;;5060153;28;20673;-82
2023/01/31 10:22:31;;;;;;;14.77;7.57;;;5.50;77.60;;;;;;5059571;28;20735;-80
2023/01/31 10:25:04;;;;;;;16.42;7.55;;;5.50;77.70;;;;;;5054664;28;20193;-80
2023/01/31 10:27:41;;;;;;;21.45;7.78;;;5.50;77.80;;;;;;5055429;28;20207;-82
2023/01/31 10:30:17;;;;;;;16.65;7.20;;;5.60;77.80;;;;;;5054293;28;20225;-82
2023/01/31 10:32:51;;;;;;;15.07;7.75;;;5.60;77.80;;;;;;5055255;28;20302;-81
2023/01/31 10:35:24;;;;;;;17.85;7.30;;;5.70;77.70;;;;;;5056376;28;20203;-81
2023/01/31 10:37:57;;;;;;;20.73;8.13;;;5.70;77.80;;;;;;5050461;28;21061;-81
2023/01/31 10:40:32;;;;;;;18.23;7.28;;;5.80;77.70;;;;;;5054143;28;20231;-82
2023/01/31 10:43:10;;;;;;;14.57;6.25;;;5.90;77.50;;;;;;5056293;28;20216;-81
2023/01/31 10:45:38;;;;;;;12.98;6.80;;;5.80;77.30;;;;;;5053959;28;20208;-82
2023/01/31 10:48:15;;;;;;;15.63;7.53;;;5.80;77.40;;;;;;5058290;28;20225;-82
2023/01/31 10:50:56;;;;;;;15.20;6.63;;;5.80;77.30;;;;;;5055338;28;20852;-80
2023/01/31 10:53:51;;;;;;;17.98;6.40;;;5.80;77.40;;;;;;5055212;28;20199;-82
2023/01/31 10:56:26;;;;;;;18.73;6.93;;;5.70;77.50;;;;;;5056320;28;20208;-81
2023/01/31 10:58:56;;;;;;;20.02;7.00;;;5.70;77.50;;;;;;5057123;28;20211;-80
2023/01/31 11:01:24;;;;;;;13.10;6.47;;;5.70;77.40;;;;;;5056207;28;20227;-81
2023/01/31 11:03:56;;;;;;;17.17;6.40;;;5.70;77.40;;;;;;5054075;28;20299;-82
2023/01/31 11:06:25;;;;;;;19.10;7.20;;;5.80;77.40;;;;;;5059129;28;20299;-82
2023/01/31 11:08:56;;;;;;;24.15;7.65;;;5.80;77.50;;;;;;5059402;28;20688;-79
2023/01/31 11:11:26;;;;;;;16.40;7.00;;;5.80;77.40;;;;;;5058896;28;20838;-82
2023/01/31 11:14:00;;;;;;;22.27;7.45;;;5.80;77.50;;;;;;5060384;28;20199;-81
2023/01/31 11:16:30;;;;;;;19.13;6.38;;;5.80;77.70;;;;;;5060699;28;20208;-82
2023/01/31 11:19:03;;;;;;;19.50;7.22;;;5.80;77.70;;;;;;5057027;28;20213;-80
2023/01/31 11:21:34;;;;;;;17.55;8.02;;;5.80;77.70;;;;;;5057879;28;20227;-82
2023/01/31 11:24:04;;;;;;;21.98;6.95;;;5.80;77.60;;;;;;5060345;28;20224;-81
2023/01/31 11:26:36;;;;;;;24.48;8.18;;;5.80;77.60;;;;;;5067458;28;20212;-81
2023/01/31 11:29:15;;;;;;;16.23;7.50;;;5.80;77.50;;;;;;5066593;28;20208;-82
2023/01/31 11:31:46;;;;;;;25.00;7.55;;;5.80;77.60;;;;;;5056897;28;20270;-80
2023/01/31 11:34:28;;;;;;;31.67;8.80;;;5.90;77.50;;;;;;5060925;28;20201;-81
2023/01/31 11:37:05;;;;;;;20.23;8.90;;;5.80;77.60;;;;;;5063567;28;20246;-80
2023/01/31 11:39:37;;;;;;;22.00;8.65;;;5.80;77.60;;;;;;5059692;28;20188;-81
2023/01/31 11:42:07;;;;;;;17.88;8.10;;;5.80;77.60;;;;;;5057545;28;20224;-80
2023/01/31 11:44:35;;;;;;;16.92;8.02;;;5.80;77.50;;;;;;5063052;28;20194;-82
2023/01/31 11:47:06;;;;;;;19.13;7.60;;;5.80;77.60;;;;;;5063553;28;20200;-82
2023/01/31 11:49:40;;;;;;;24.85;8.32;;;5.80;77.70;;;;;;5062796;28;20227;-82
2023/01/31 11:52:14;;;;;;;21.42;8.48;;;5.80;77.70;;;;;;5060017;28;20653;-81
2023/01/31 11:54:46;;;;;;;17.88;8.48;;;5.80;77.80;;;;;;5069563;28;20454;-80
2023/01/31 11:57:16;;;;;;;20.00;7.55;;;5.80;77.80;;;;;;5064984;28;20204;-81
2023/01/31 11:59:44;;;;;;;15.18;7.25;;;5.90;77.70;;;;;;5065560;28;20629;-81
2023/01/31 12:02:27;;;;;;;17.17;7.25;;;5.80;77.70;;;;;;5055119;28;20226;-80
2023/01/31 12:04:58;;;;;;;26.48;8.13;;;5.80;77.80;;;;;;5059537;28;20265;-81
2023/01/31 12:07:29;;;;;;;21.27;8.50;;;5.80;77.70;;;;;;5060435;28;20199;-85
2023/01/31 12:09:57;;;;;;;26.52;9.25;;;5.90;77.70;;;;;;5062514;28;20206;-81
2023/01/31 12:12:32;;;;;;;18.73;6.80;;;5.90;77.60;;;;;;5057554;28;20184;-81
2023/01/31 12:15:01;;;;;;;20.60;8.90;;;5.90;77.60;;;;;;5060542;28;20196;-81
2023/01/31 12:17:31;;;;;;;19.63;8.45;;;5.90;77.50;;;;;;5057304;28;20229;-83
2023/01/31 12:20:17;;;;;;;24.40;9.77;;;5.80;77.60;;;;;;5063646;28;20220;-82
2023/01/31 12:23:04;;;;;;;21.42;8.00;;;5.80;77.70;;;;;;5062389;28;20227;-82
2023/01/31 12:25:46;;;;;;;17.52;8.38;;;5.80;77.70;;;;;;5058489;28;20204;-82
2023/01/31 12:28:25;;;;;;;14.73;7.82;;;5.80;77.60;;;;;;5065902;28;20607;-84
2023/01/31 12:31:05;;;;;;;27.55;8.93;;;5.80;77.80;;;;;;5058718;28;20225;-81
2023/01/31 12:33:51;;;;;;;29.65;13.95;;;5.90;77.70;;;;;;5060399;28;20266;-81
2023/01/31 12:36:34;;;;;;;20.48;8.57;;;5.90;77.70;;;;;;5055288;28;20188;-81
2023/01/31 12:39:16;;;;;;;18.38;8.65;;;5.80;77.70;;;;;;5057198;28;20213;-81
2023/01/31 12:41:57;;;;;;;20.75;9.05;;;5.80;77.70;;;;;;5056732;28;20392;-81
2023/01/31 12:44:38;;;;;;;24.40;9.18;;;5.80;77.80;;;;;;5060869;28;20227;-82
2023/01/31 12:47:25;;;;;;;20.63;9.20;;;5.80;77.80;;;;;;5060678;28;20207;-82
2023/01/31 12:50:12;;;;;;;16.48;8.00;;;5.80;77.80;;;;;;5063226;28;20206;-81
2023/01/31 12:52:51;;;;;;;18.13;7.90;;;5.80;77.70;;;;;;5057088;28;20214;-82
2023/01/31 12:55:29;;;;;;;17.90;7.25;;;5.90;77.70;;;;;;5056915;28;20202;-82
2023/01/31 12:58:13;;;;;;;18.83;8.68;;;5.80;77.80;;;;;;5055043;28;20211;-82
2023/01/31 13:00:52;;;;;;;20.95;7.00;;;5.80;77.80;;;;;;5057881;28;20232;-81
2023/01/31 13:03:44;;;;;;;18.98;7.45;;;5.90;77.80;;;;;;5058327;28;20223;-83
2023/01/31 13:06:15;;;;;;;23.95;8.70;;;5.90;77.70;;;;;;5061330;28;20337;-82
2023/01/31 13:08:51;;;;;;;14.88;7.70;;;5.90;77.70;;;;;;5059053;28;20195;-84
2023/01/31 13:11:41;;;;;;;20.55;8.40;;;5.90;77.70;;;;;;5058749;28;20223;-83
2023/01/31 13:14:15;;;;;;;19.70;7.30;;;5.90;77.70;;;;;;5064077;28;20232;-82
2023/01/31 13:16:45;;;;;;;16.75;7.95;;;5.90;77.70;;;;;;5054643;28;20253;-82
2023/01/31 13:19:19;;;;;;;16.83;7.07;;;5.90;77.80;;;;;;5060801;28;20796;-82
2023/01/31 13:21:51;;;;;;;15.85;7.63;;;5.80;77.90;;;;;;5056059;28;20223;-82
2023/01/31 13:24:26;;;;;;;20.52;8.50;;;5.90;77.90;;;;;;5058135;28;20214;-82